createdAt,value
2022-11-19T00:01:34.340Z,1.70
2022-11-19T00:04:02.086Z,2.50
2022-11-19T00:06:29.819Z,2.20
2022-11-19T00:08:57.489Z,2.40
2022-11-19T00:11:46.655Z,2.20
2022-11-19T00:14:16.369Z,2.20
2022-11-19T00:16:44.343Z,2.10
2022-11-19T00:19:12.972Z,2.10
2022-11-19T00:21:40.794Z,2.00
2022-11-19T00:24:09.205Z,2.10
2022-11-19T00:26:37.011Z,2.00
2022-11-19T00:29:04.804Z,2.80
2022-11-19T00:31:32.587Z,2.00
2022-11-19T00:34:00.260Z,2.10
2022-11-19T00:36:28.007Z,2.40
2022-11-19T00:38:55.931Z,2.00
2022-11-19T00:41:23.623Z,2.20
2022-11-19T00:43:51.412Z,2.30
2022-11-19T00:46:26.185Z,2.10
2022-11-19T00:48:57.232Z,2.60
2022-11-19T00:51:29.361Z,2.30
2022-11-19T00:53:58.002Z,2.40
2022-11-19T00:56:27.996Z,2.20
2022-11-19T00:58:56.213Z,2.30
2022-11-19T01:01:26.105Z,2.00
2022-11-19T01:03:54.930Z,2.20
2022-11-19T01:06:25.155Z,2.80
2022-11-19T01:08:54.270Z,2.30
2022-11-19T01:11:29.420Z,2.10
2022-11-19T01:13:58.842Z,1.50
2022-11-19T01:16:35.628Z,1.80
2022-11-19T01:19:06.050Z,2.00
2022-11-19T01:21:35.792Z,2.60
2022-11-19T01:24:05.436Z,2.30
2022-11-19T01:26:33.778Z,2.30
2022-11-19T01:29:01.528Z,2.10
2022-11-19T01:31:30.661Z,2.30
2022-11-19T01:33:59.313Z,2.10
2022-11-19T01:36:29.725Z,2.60
2022-11-19T01:38:58.369Z,2.20
2022-11-19T01:41:30.673Z,1.90
2022-11-19T01:44:03.750Z,1.90
2022-11-19T01:46:35.431Z,1.90
2022-11-19T01:49:19.052Z,2.20
2022-11-19T01:51:57.870Z,2.20
2022-11-19T01:54:33.496Z,2.80
2022-11-19T01:57:13.173Z,2.00
2022-11-19T01:59:44.081Z,2.10
2022-11-19T02:02:12.105Z,2.00
2022-11-19T02:04:40.838Z,2.20
2022-11-19T02:07:12.147Z,2.00
2022-11-19T02:09:41.161Z,2.00
2022-11-19T02:12:35.873Z,2.20
2022-11-19T02:15:21.240Z,2.10
2022-11-19T02:18:14.368Z,2.10
2022-11-19T02:20:51.967Z,2.00
2022-11-19T02:23:52.125Z,2.30
2022-11-19T02:26:46.986Z,1.90
2022-11-19T02:29:30.255Z,2.30
2022-11-19T02:32:08.761Z,2.30
2022-11-19T02:34:46.384Z,2.10
2022-11-19T02:37:39.470Z,2.20
2022-11-19T02:40:24.853Z,2.20
2022-11-19T02:43:08.505Z,2.30
2022-11-19T02:45:44.432Z,2.30
2022-11-19T02:48:21.149Z,2.50
2022-11-19T02:50:54.030Z,2.40
2022-11-19T02:53:23.576Z,2.50
2022-11-19T02:56:10.251Z,2.50
2022-11-19T02:59:09.652Z,2.00
2022-11-19T03:02:04.416Z,2.20
2022-11-19T03:04:33.021Z,1.90
2022-11-19T03:07:09.812Z,1.90
2022-11-19T03:09:49.151Z,2.20
2022-11-19T03:12:53.684Z,2.00
2022-11-19T03:15:46.230Z,2.10
2022-11-19T03:18:32.591Z,1.90
2022-11-19T03:21:15.872Z,2.40
2022-11-19T03:23:54.514Z,1.90
2022-11-19T03:26:34.005Z,2.10
2022-11-19T03:29:11.172Z,2.10
2022-11-19T03:31:47.748Z,2.20
2022-11-19T03:34:22.246Z,2.30
2022-11-19T03:36:58.277Z,2.60
2022-11-19T03:39:26.199Z,2.20
2022-11-19T03:41:56.689Z,2.10
2022-11-19T03:44:36.818Z,2.00
2022-11-19T03:47:12.520Z,1.90
2022-11-19T03:49:46.034Z,1.90
2022-11-19T03:52:19.462Z,1.90
2022-11-19T03:54:47.902Z,2.30
2022-11-19T03:57:20.041Z,2.10
2022-11-19T03:59:47.849Z,2.30
2022-11-19T04:02:16.452Z,2.40
2022-11-19T04:04:44.238Z,1.90
2022-11-19T04:07:20.222Z,2.10
2022-11-19T04:09:48.945Z,2.20
2022-11-19T04:12:23.504Z,2.20
2022-11-19T04:14:52.245Z,2.00
2022-11-19T04:17:20.543Z,1.90
2022-11-19T04:19:48.772Z,1.90
2022-11-19T04:22:16.514Z,2.70
2022-11-19T04:24:44.165Z,1.70
2022-11-19T04:27:11.993Z,1.80
2022-11-19T04:29:39.729Z,1.60
2022-11-19T04:32:07.461Z,1.70
2022-11-19T04:34:35.165Z,1.70
2022-11-19T04:37:02.783Z,1.90
2022-11-19T04:39:30.613Z,1.90
2022-11-19T04:41:58.385Z,2.30
2022-11-19T04:44:26.204Z,1.80
2022-11-19T04:46:53.883Z,1.80
2022-11-19T04:49:21.802Z,2.00
2022-11-19T04:51:49.741Z,2.00
2022-11-19T04:54:17.720Z,2.70
2022-11-19T04:56:45.675Z,1.80
2022-11-19T04:59:13.738Z,2.40
2022-11-19T05:01:41.480Z,1.90
2022-11-19T05:04:10.095Z,1.80
2022-11-19T05:06:38.509Z,2.10
2022-11-19T05:09:06.604Z,1.90
2022-11-19T05:11:34.442Z,1.90
2022-11-19T05:14:02.540Z,1.80
2022-11-19T05:16:30.201Z,1.70
2022-11-19T05:18:57.901Z,1.60
2022-11-19T05:21:25.699Z,2.10
2022-11-19T05:23:53.343Z,1.90
2022-11-19T05:26:21.033Z,1.90
2022-11-19T05:28:48.717Z,2.20
2022-11-19T05:31:16.409Z,1.80
2022-11-19T05:33:44.136Z,2.40
2022-11-19T05:36:11.824Z,1.70
2022-11-19T05:38:41.084Z,1.80
2022-11-19T05:41:09.017Z,1.80
2022-11-19T05:43:36.758Z,2.00
2022-11-19T05:46:04.509Z,1.80
2022-11-19T05:48:32.168Z,2.40
2022-11-19T05:50:59.876Z,1.80
2022-11-19T05:53:27.733Z,2.00
2022-11-19T05:55:55.388Z,2.00
2022-11-19T05:58:23.103Z,2.40
2022-11-19T06:00:55.960Z,2.10
2022-11-19T06:03:23.661Z,1.70
2022-11-19T06:05:52.452Z,1.80
2022-11-19T06:08:20.188Z,1.50
2022-11-19T06:10:48.013Z,2.50
2022-11-19T06:13:15.752Z,1.80
2022-11-19T06:15:43.434Z,1.50
2022-11-19T06:18:11.203Z,1.90
2022-11-19T06:20:38.863Z,1.60
2022-11-19T06:23:06.533Z,2.10
2022-11-19T06:25:34.156Z,1.60
2022-11-19T06:28:01.881Z,1.80
2022-11-19T06:30:29.562Z,2.10
2022-11-19T06:32:57.268Z,1.70
2022-11-19T06:35:24.908Z,1.70
2022-11-19T06:37:52.664Z,1.60
2022-11-19T06:40:20.331Z,1.90
2022-11-19T06:42:50.913Z,2.00
2022-11-19T06:45:18.946Z,1.60
2022-11-19T06:47:49.201Z,2.00
2022-11-19T06:50:18.027Z,2.30
2022-11-19T06:52:45.778Z,1.90
2022-11-19T06:55:14.343Z,1.70
2022-11-19T06:57:42.092Z,2.30
2022-11-19T07:00:11.164Z,1.60
2022-11-19T07:02:38.856Z,1.70
2022-11-19T07:05:08.159Z,1.90
2022-11-19T07:07:35.950Z,2.20
2022-11-19T07:10:04.269Z,1.40
2022-11-19T07:12:32.070Z,2.80
2022-11-19T07:15:04.066Z,2.00
2022-11-19T07:17:32.448Z,1.70
2022-11-19T07:20:00.442Z,1.60
2022-11-19T07:22:28.179Z,1.80
2022-11-19T07:24:55.920Z,1.70
2022-11-19T07:27:23.776Z,1.70
2022-11-19T07:29:51.479Z,1.90
2022-11-19T07:32:19.181Z,2.20
2022-11-19T07:34:46.843Z,1.70
2022-11-19T07:37:14.532Z,2.40
2022-11-19T07:39:42.155Z,2.10
2022-11-19T07:42:28.477Z,2.10
2022-11-19T07:44:56.234Z,1.60
2022-11-19T07:47:24.037Z,1.80
2022-11-19T07:49:52.036Z,1.80
2022-11-19T07:52:21.360Z,1.90
2022-11-19T07:54:49.046Z,2.10
2022-11-19T07:57:16.992Z,2.50
2022-11-19T07:59:44.670Z,1.90
2022-11-19T08:02:13.485Z,1.70
2022-11-19T08:04:41.426Z,2.70
2022-11-19T08:07:09.276Z,2.20
2022-11-19T08:09:37.139Z,1.50
2022-11-19T08:12:05.378Z,2.60
2022-11-19T08:14:33.246Z,1.90
2022-11-19T08:17:19.794Z,1.60
2022-11-19T08:19:47.487Z,1.50
2022-11-19T08:22:15.219Z,2.00
2022-11-19T08:24:44.164Z,2.10
2022-11-19T08:27:12.861Z,1.80
2022-11-19T08:29:40.603Z,1.90
2022-11-19T08:32:08.329Z,2.20
2022-11-19T08:34:36.072Z,1.90
2022-11-19T08:37:03.842Z,1.70
2022-11-19T08:39:31.989Z,2.20
2022-11-19T08:42:18.693Z,2.50
2022-11-19T08:44:46.392Z,1.80
2022-11-19T08:47:14.357Z,2.40
2022-11-19T08:49:42.129Z,2.30
2022-11-19T08:52:10.171Z,2.50
2022-11-19T08:54:37.910Z,2.20
2022-11-19T08:57:05.831Z,2.40
2022-11-19T08:59:33.640Z,2.00
2022-11-19T09:02:01.348Z,1.90
2022-11-19T09:04:29.099Z,2.00
2022-11-19T09:06:57.864Z,1.80
2022-11-19T09:09:25.680Z,1.50
2022-11-19T09:11:55.500Z,2.60
2022-11-19T09:14:23.237Z,1.60
2022-11-19T09:16:50.927Z,1.90
2022-11-19T09:19:18.678Z,2.00
2022-11-19T09:21:46.416Z,1.80
2022-11-19T09:24:14.263Z,1.80
2022-11-19T09:26:41.918Z,1.90
2022-11-19T09:29:10.114Z,1.70
2022-11-19T09:31:37.872Z,1.50
2022-11-19T09:34:05.809Z,1.60
2022-11-19T09:36:33.602Z,1.70
2022-11-19T09:39:02.245Z,1.60
2022-11-19T09:41:43.962Z,1.70
2022-11-19T09:47:28.860Z,1.50
2022-11-19T09:50:32.930Z,2.00
2022-11-19T09:53:18.830Z,1.60
2022-11-19T09:55:50.317Z,1.20
2022-11-19T09:58:45.397Z,1.50
2022-11-19T10:01:17.361Z,2.00
2022-11-19T10:03:51.808Z,1.40
2022-11-19T10:06:30.066Z,1.90
2022-11-19T10:09:44.115Z,1.60
2022-11-19T10:12:27.674Z,1.70
2022-11-19T10:15:21.182Z,1.70
2022-11-19T10:18:19.333Z,1.80
2022-11-19T10:20:59.227Z,1.60
2022-11-19T10:24:18.046Z,1.60
2022-11-19T10:27:02.015Z,1.70
2022-11-19T10:29:38.289Z,2.00
2022-11-19T10:32:32.711Z,3.00
2022-11-19T10:35:09.080Z,2.00
2022-11-19T10:37:52.104Z,2.60
2022-11-19T10:40:25.382Z,2.00
2022-11-19T10:43:17.114Z,1.30
2022-11-19T10:45:47.094Z,1.70
2022-11-19T10:48:23.723Z,1.50
2022-11-19T10:50:52.338Z,1.80
2022-11-19T10:53:51.211Z,1.50
2022-11-19T10:56:35.952Z,1.60
2022-11-19T10:59:16.514Z,1.50
2022-11-19T11:01:48.910Z,1.50
2022-11-19T11:04:30.000Z,2.10
2022-11-19T11:07:05.358Z,1.50
2022-11-19T11:09:40.588Z,1.60
2022-11-19T11:12:41.360Z,1.70
2022-11-19T11:15:24.242Z,1.40
2022-11-19T11:18:06.438Z,1.30
2022-11-19T11:20:37.409Z,1.60
2022-11-19T11:23:22.953Z,1.70
2022-11-19T11:26:05.584Z,1.60
2022-11-19T11:28:34.570Z,1.40
2022-11-19T11:31:05.513Z,1.50
2022-11-19T11:33:35.898Z,1.40
2022-11-19T11:36:11.330Z,1.40
2022-11-19T11:38:46.452Z,1.60
2022-11-19T11:42:03.334Z,1.70
2022-11-19T11:44:23.724Z,1.70
2022-11-19T11:46:53.763Z,1.90
2022-11-19T11:49:37.696Z,2.70
2022-11-19T11:52:11.287Z,2.00
2022-11-19T11:54:56.971Z,5.80
2022-11-19T11:57:30.013Z,3.40
2022-11-19T11:59:58.016Z,4.40
2022-11-19T12:02:31.010Z,2.00
2022-11-19T12:05:04.233Z,2.60
2022-11-19T12:08:06.009Z,4.00
2022-11-19T12:10:52.357Z,2.10
2022-11-19T12:13:48.689Z,2.30
2022-11-19T12:16:41.334Z,1.90
2022-11-19T12:23:04.912Z,2.30
2022-11-19T12:26:16.773Z,2.10
2022-11-19T12:32:07.436Z,2.10
2022-11-19T12:35:11.255Z,1.80
2022-11-19T12:38:11.500Z,2.50
2022-11-19T12:40:52.072Z,2.10
2022-11-19T12:43:25.516Z,2.10
2022-11-19T12:46:11.110Z,2.50
2022-11-19T12:48:57.562Z,1.90
2022-11-19T12:51:46.413Z,2.60
2022-11-19T12:54:34.528Z,1.60
2022-11-19T12:57:28.249Z,4.90
2022-11-19T13:00:19.267Z,1.70
2022-11-19T13:03:08.967Z,3.20
2022-11-19T13:05:59.300Z,2.90
2022-11-19T13:08:52.024Z,4.50
2022-11-19T13:11:36.405Z,4.80
2022-11-19T13:14:39.798Z,2.50
2022-11-19T13:17:21.220Z,2.90
2022-11-19T13:22:37.659Z,2.50
2022-11-19T13:25:26.272Z,2.60
2022-11-19T13:27:58.705Z,3.30
2022-11-19T13:30:27.892Z,2.20
2022-11-19T13:33:26.845Z,2.80
2022-11-19T13:36:31.548Z,2.70
2022-11-19T13:39:13.323Z,2.30
2022-11-19T13:42:10.139Z,3.10
2022-11-19T13:44:38.513Z,2.90
2022-11-19T13:47:24.626Z,2.80
2022-11-19T13:50:02.211Z,2.40
2022-11-19T13:52:43.979Z,3.20
2022-11-19T13:55:33.414Z,3.10
2022-11-19T13:58:38.663Z,3.50
2022-11-19T14:01:20.222Z,3.40
2022-11-19T14:04:06.246Z,3.60
2022-11-19T14:07:10.857Z,2.90
2022-11-19T14:09:48.897Z,2.50
2022-11-19T14:12:47.117Z,2.90
2022-11-19T14:15:42.794Z,2.40
2022-11-19T14:18:54.144Z,2.40
2022-11-19T14:24:45.801Z,2.60
2022-11-19T14:27:31.279Z,2.30
2022-11-19T14:30:03.232Z,2.40
2022-11-19T14:32:46.347Z,2.30
2022-11-19T14:35:26.947Z,1.80
2022-11-19T14:38:19.359Z,1.90
2022-11-19T14:40:58.465Z,2.10
2022-11-19T14:43:46.749Z,2.10
2022-11-19T14:46:14.444Z,2.30
2022-11-19T14:48:42.109Z,2.00
2022-11-19T14:51:15.694Z,2.40
2022-11-19T14:53:55.550Z,2.40
2022-11-19T14:56:24.420Z,2.10
2022-11-19T14:59:07.044Z,2.30
2022-11-19T15:01:58.965Z,2.50
2022-11-19T15:04:52.473Z,2.30
2022-11-19T15:07:45.524Z,2.60
2022-11-19T15:10:13.173Z,2.20
2022-11-19T15:12:43.948Z,3.30
2022-11-19T15:15:20.600Z,2.20
2022-11-19T15:18:01.932Z,2.20
2022-11-19T15:20:46.292Z,1.80
2022-11-19T15:23:35.373Z,1.80
2022-11-19T15:26:20.892Z,1.70
2022-11-19T15:29:07.547Z,1.60
2022-11-19T15:32:12.404Z,2.20
2022-11-19T15:35:04.195Z,1.70
2022-11-19T15:37:43.460Z,2.80
2022-11-19T15:40:22.508Z,2.80
2022-11-19T15:43:04.416Z,2.60
2022-11-19T15:48:19.149Z,3.20
2022-11-19T15:50:48.593Z,2.20
2022-11-19T15:53:21.601Z,2.40
2022-11-19T15:56:02.107Z,2.20
2022-11-19T15:58:45.406Z,2.60
2022-11-19T16:01:21.640Z,2.30
2022-11-19T16:03:52.735Z,2.50
2022-11-19T16:06:27.528Z,2.90
2022-11-19T16:09:00.386Z,5.00
2022-11-19T16:11:52.607Z,3.90
2022-11-19T16:14:50.633Z,6.50
2022-11-19T16:17:43.605Z,5.60
2022-11-19T16:20:12.531Z,4.70
2022-11-19T16:23:10.444Z,5.30
2022-11-19T16:25:42.824Z,4.00
2022-11-19T16:28:17.726Z,3.20
2022-11-19T16:30:53.067Z,3.30
2022-11-19T16:33:28.152Z,3.50
2022-11-19T16:36:15.573Z,3.40
2022-11-19T16:38:50.048Z,4.40
2022-11-19T16:41:40.258Z,5.80
2022-11-19T16:44:16.824Z,4.50
2022-11-19T16:46:45.007Z,4.60
2022-11-19T16:49:48.933Z,5.70
2022-11-19T16:52:43.424Z,5.00
2022-11-19T16:55:19.908Z,5.20
2022-11-19T16:57:51.054Z,5.80
2022-11-19T17:00:31.324Z,7.00
2022-11-19T17:02:59.921Z,7.40
2022-11-19T17:05:31.359Z,8.00
2022-11-19T17:08:19.599Z,8.90
2022-11-19T17:10:47.827Z,9.00
2022-11-19T17:13:18.409Z,8.80
2022-11-19T17:15:48.407Z,7.50
2022-11-19T17:18:20.776Z,7.50
2022-11-19T17:20:52.551Z,9.00
2022-11-19T17:23:32.469Z,9.00
2022-11-19T17:26:07.491Z,7.90
2022-11-19T17:28:52.112Z,6.50
2022-11-19T17:31:26.847Z,5.40
2022-11-19T17:33:58.392Z,5.70
2022-11-19T17:38:55.831Z,6.40
2022-11-19T17:41:46.686Z,8.30
2022-11-19T17:44:36.593Z,8.70
2022-11-19T17:47:22.868Z,6.90
2022-11-19T17:49:53.136Z,6.50
2022-11-19T17:52:25.424Z,6.00
2022-11-19T17:54:57.419Z,5.80
2022-11-19T17:57:25.149Z,5.70
2022-11-19T17:59:52.821Z,5.50
2022-11-19T18:02:21.164Z,9.20
2022-11-19T18:04:49.555Z,9.10
2022-11-19T18:07:17.752Z,8.30
2022-11-19T18:09:45.551Z,6.30
2022-11-19T18:12:18.343Z,6.30
2022-11-19T18:14:46.847Z,6.80
2022-11-19T18:17:15.855Z,7.60
2022-11-19T18:19:43.942Z,7.30
2022-11-19T18:22:19.831Z,7.80
2022-11-19T18:24:52.531Z,7.20
2022-11-19T18:27:20.398Z,6.50
2022-11-19T18:29:48.419Z,6.80
2022-11-19T18:32:16.981Z,6.00
2022-11-19T18:34:46.115Z,6.50
2022-11-19T18:37:14.115Z,6.30
2022-11-19T18:39:41.822Z,6.50
2022-11-19T18:42:12.788Z,7.80
2022-11-19T18:44:43.209Z,8.20
2022-11-19T18:47:14.648Z,8.50
2022-11-19T18:49:42.360Z,9.80
2022-11-19T18:52:15.005Z,8.60
2022-11-19T18:54:43.426Z,12.10
2022-11-19T18:57:12.447Z,10.30
2022-11-19T18:59:41.343Z,10.60
2022-11-19T19:02:10.976Z,11.50
2022-11-19T19:04:38.797Z,12.20
2022-11-19T19:07:06.510Z,13.20
2022-11-19T19:09:34.464Z,15.10
2022-11-19T19:12:17.270Z,15.20
2022-11-19T19:14:51.537Z,15.80
2022-11-19T19:17:19.414Z,17.10
2022-11-19T19:19:47.476Z,14.70
2022-11-19T19:22:15.248Z,15.00
2022-11-19T19:24:42.960Z,14.30
2022-11-19T19:27:11.101Z,13.30
2022-11-19T19:29:39.844Z,14.30
2022-11-19T19:32:08.165Z,13.90
2022-11-19T19:34:36.441Z,14.00
2022-11-19T19:37:05.265Z,14.30
2022-11-19T19:39:33.214Z,14.90
2022-11-19T19:42:00.889Z,14.30
2022-11-19T19:44:28.665Z,15.00
2022-11-19T19:46:56.538Z,15.40
2022-11-19T19:49:24.467Z,14.90
2022-11-19T19:51:52.432Z,14.90
2022-11-19T19:54:20.320Z,13.60
2022-11-19T19:56:48.482Z,14.20
2022-11-19T19:59:16.330Z,13.40
2022-11-19T20:01:50.615Z,13.10
2022-11-19T20:04:18.617Z,11.80
2022-11-19T20:06:47.879Z,11.70
2022-11-19T20:09:15.829Z,12.70
2022-11-19T20:11:43.667Z,12.70
2022-11-19T20:14:11.826Z,15.20
2022-11-19T20:16:41.337Z,15.70
2022-11-19T20:19:14.541Z,15.00
2022-11-19T20:21:42.866Z,14.40
2022-11-19T20:24:13.302Z,13.20
2022-11-19T20:26:42.905Z,14.00
2022-11-19T20:29:14.079Z,14.40
2022-11-19T20:31:47.222Z,15.00
2022-11-19T20:34:16.581Z,15.80
2022-11-19T20:36:44.622Z,17.00
2022-11-19T20:39:12.756Z,18.10
2022-11-19T20:41:59.500Z,19.20
2022-11-19T20:44:27.326Z,18.90
2022-11-19T20:46:58.741Z,19.00
2022-11-19T20:49:30.245Z,17.70
2022-11-19T20:54:27.205Z,17.10
2022-11-19T20:56:57.180Z,18.70
2022-11-19T20:59:27.104Z,18.80
2022-11-19T21:01:56.754Z,19.80
2022-11-19T21:04:27.215Z,22.20
2022-11-19T21:06:55.357Z,19.20
2022-11-19T21:09:24.004Z,21.00
2022-11-19T21:11:52.007Z,20.90
2022-11-19T21:14:20.054Z,19.90
2022-11-19T21:16:48.288Z,20.90
2022-11-19T21:19:16.271Z,20.40
2022-11-19T21:21:45.429Z,19.90
2022-11-19T21:24:13.297Z,20.70
2022-11-19T21:26:41.188Z,19.50
2022-11-19T21:29:09.005Z,20.70
2022-11-19T21:31:48.575Z,19.80
2022-11-19T21:34:20.775Z,19.30
2022-11-19T21:36:49.668Z,20.10
2022-11-19T21:39:19.202Z,19.20
2022-11-19T21:41:47.305Z,19.10
2022-11-19T21:44:20.783Z,18.30
2022-11-19T21:46:49.908Z,18.40
2022-11-19T21:49:18.123Z,17.30
2022-11-19T21:51:46.644Z,17.30
2022-11-19T21:54:14.446Z,19.30
2022-11-19T21:56:42.087Z,19.70
2022-11-19T21:59:09.744Z,18.30
2022-11-19T22:01:37.559Z,19.70
2022-11-19T22:04:05.518Z,21.70
2022-11-19T22:06:33.798Z,22.50
2022-11-19T22:09:02.348Z,22.70
2022-11-19T22:11:31.261Z,23.20
2022-11-19T22:14:08.099Z,23.80
2022-11-19T22:16:39.763Z,23.70
2022-11-19T22:19:10.573Z,23.30
2022-11-19T22:21:39.975Z,23.90
2022-11-19T22:24:08.132Z,22.80
2022-11-19T22:26:36.215Z,23.20
2022-11-19T22:29:04.449Z,21.30
2022-11-19T22:31:33.200Z,22.20
2022-11-19T22:34:01.382Z,20.60
2022-11-19T22:36:33.816Z,19.80
2022-11-19T22:39:02.285Z,19.80
2022-11-19T22:41:30.675Z,20.70
2022-11-19T22:43:59.188Z,19.80
2022-11-19T22:46:28.288Z,19.00
2022-11-19T22:48:57.189Z,18.20
2022-11-19T22:51:26.102Z,19.70
2022-11-19T22:53:54.908Z,19.80
2022-11-19T22:56:26.966Z,20.60
2022-11-19T22:58:56.463Z,20.90
2022-11-19T23:01:34.427Z,20.50
2022-11-19T23:04:06.910Z,19.60
2022-11-19T23:06:37.068Z,21.80
2022-11-19T23:09:07.493Z,23.60
2022-11-19T23:11:54.504Z,22.50
2022-11-19T23:14:22.866Z,21.80
2022-11-19T23:16:51.238Z,22.60
2022-11-19T23:19:19.925Z,21.60
2022-11-19T23:21:48.534Z,20.70
2022-11-19T23:24:17.607Z,21.70
2022-11-19T23:26:45.816Z,20.50
2022-11-19T23:29:13.901Z,22.00
2022-11-19T23:31:42.092Z,22.80
2022-11-19T23:34:10.455Z,21.20
2022-11-19T23:36:40.584Z,21.40
2022-11-19T23:39:16.399Z,22.00
2022-11-19T23:41:45.525Z,21.40
2022-11-19T23:44:13.860Z,21.80
2022-11-19T23:46:42.179Z,20.80
2022-11-19T23:49:11.248Z,22.10
2022-11-19T23:51:40.331Z,21.40
2022-11-19T23:54:08.490Z,21.00
2022-11-19T23:56:36.783Z,21.00
2022-11-19T23:59:05.969Z,20.50
